createdAt,value
2018-06-12T00:00:42.467Z,90.90
2018-06-12T00:03:11.819Z,90.90
2018-06-12T00:05:41.207Z,90.90
2018-06-12T00:08:10.604Z,90.90
2018-06-12T00:10:39.968Z,90.90
2018-06-12T00:13:09.308Z,90.90
2018-06-12T00:15:38.761Z,90.90
2018-06-12T00:18:08.157Z,90.90
2018-06-12T00:20:37.463Z,91.00
2018-06-12T00:23:06.809Z,91.10
2018-06-12T00:25:36.208Z,91.10
2018-06-12T00:28:05.585Z,91.20
2018-06-12T00:30:34.990Z,91.30
2018-06-12T00:33:04.378Z,91.30
2018-06-12T00:35:33.764Z,91.30
2018-06-12T00:40:31.977Z,91.60
2018-06-12T00:43:01.348Z,91.60
2018-06-12T00:45:30.781Z,91.60
2018-06-12T00:48:00.212Z,91.70
2018-06-12T00:50:29.611Z,91.60
2018-06-12T00:52:58.966Z,91.70
2018-06-12T00:55:28.394Z,91.90
2018-06-12T00:57:57.821Z,91.90
2018-06-12T01:00:27.165Z,91.90
2018-06-12T01:02:57.756Z,91.90
2018-06-12T01:05:27.091Z,92.00
2018-06-12T01:07:56.444Z,92.00
2018-06-12T01:10:25.823Z,92.20
2018-06-12T01:12:55.177Z,92.20
2018-06-12T01:15:24.539Z,92.30
2018-06-12T01:17:53.921Z,92.30
2018-06-12T01:20:23.303Z,92.40
2018-06-12T01:25:21.503Z,92.40
2018-06-12T01:27:50.888Z,92.50
2018-06-12T01:30:20.294Z,92.70
2018-06-12T01:32:49.776Z,92.70
2018-06-12T01:35:19.103Z,92.80
2018-06-12T01:40:17.304Z,93.00
2018-06-12T01:42:46.658Z,92.90
2018-06-12T01:45:16.006Z,93.00
2018-06-12T01:47:45.382Z,93.10
2018-06-12T01:50:14.660Z,93.20
2018-06-12T01:52:44.259Z,93.10
2018-06-12T01:55:13.637Z,93.10
2018-06-12T01:57:43.029Z,93.10
2018-06-12T02:00:12.388Z,93.10
2018-06-12T02:02:41.779Z,93.10
2018-06-12T02:05:11.115Z,93.00
2018-06-12T02:07:40.473Z,93.10
2018-06-12T02:10:09.856Z,93.10
2018-06-12T02:12:39.195Z,93.00
2018-06-12T02:15:08.551Z,93.00
2018-06-12T02:17:38.003Z,93.00
2018-06-12T02:20:07.399Z,93.10
2018-06-12T02:22:36.887Z,93.00
2018-06-12T02:25:06.602Z,93.10
2018-06-12T02:27:35.938Z,93.30
2018-06-12T02:30:05.429Z,93.10
2018-06-12T02:32:34.791Z,93.00
2018-06-12T02:35:04.244Z,93.10
2018-06-12T02:37:33.570Z,93.20
2018-06-12T02:40:02.910Z,93.20
2018-06-12T02:42:32.266Z,93.20
2018-06-12T02:45:01.593Z,93.20
2018-06-12T02:47:31.003Z,93.40
2018-06-12T02:50:00.411Z,93.40
2018-06-12T02:52:29.835Z,93.40
2018-06-12T02:54:59.277Z,93.60
2018-06-12T02:57:28.620Z,93.50
2018-06-12T02:59:57.980Z,93.50
2018-06-12T03:02:27.349Z,93.60
2018-06-12T03:04:56.673Z,93.70
2018-06-12T03:09:54.876Z,93.80
2018-06-12T03:12:24.226Z,93.80
2018-06-12T03:14:53.590Z,93.80
2018-06-12T03:17:22.970Z,93.80
2018-06-12T03:19:52.319Z,93.70
2018-06-12T03:22:21.785Z,93.70
2018-06-12T03:24:51.202Z,93.80
2018-06-12T03:27:20.559Z,93.70
2018-06-12T03:32:18.830Z,93.80
2018-06-12T03:34:48.165Z,93.70
2018-06-12T03:39:46.367Z,93.70
2018-06-12T03:44:45.433Z,93.60
2018-06-12T03:47:14.779Z,93.60
2018-06-12T03:49:44.102Z,93.60
2018-06-12T03:52:13.718Z,93.50
2018-06-12T03:54:43.090Z,93.40
2018-06-12T03:57:12.433Z,93.30
2018-06-12T03:59:41.814Z,93.40
2018-06-12T04:02:11.188Z,93.30
2018-06-12T04:04:40.593Z,93.30
2018-06-12T04:07:09.952Z,93.40
2018-06-12T04:09:39.333Z,93.40
2018-06-12T04:12:08.641Z,93.50
2018-06-12T04:14:38.077Z,93.40
2018-06-12T04:17:08.452Z,93.50
2018-06-12T04:19:37.839Z,93.50
2018-06-12T04:22:07.283Z,93.60
2018-06-12T04:24:36.691Z,93.60
2018-06-12T04:27:06.012Z,93.60
2018-06-12T04:29:35.435Z,93.60
2018-06-12T04:32:04.910Z,93.60
2018-06-12T04:34:34.363Z,93.60
2018-06-12T04:37:03.928Z,93.50
2018-06-12T04:39:33.368Z,93.50
2018-06-12T04:42:02.742Z,93.60
2018-06-12T04:44:32.096Z,93.70
2018-06-12T04:47:01.437Z,93.90
2018-06-12T04:49:30.780Z,93.80
2018-06-12T04:52:00.178Z,93.80
2018-06-12T04:54:29.561Z,93.90
2018-06-12T04:56:58.915Z,93.80
2018-06-12T04:59:28.304Z,93.70
2018-06-12T05:01:58.735Z,93.80
2018-06-12T05:04:28.101Z,93.80
2018-06-12T05:06:57.449Z,93.90
2018-06-12T05:09:26.823Z,93.90
2018-06-12T05:11:56.608Z,93.90
2018-06-12T05:14:25.938Z,94.00
2018-06-12T05:16:55.298Z,93.90
2018-06-12T05:19:24.660Z,93.80
2018-06-12T05:21:53.963Z,93.70
2018-06-12T05:24:23.342Z,93.70
2018-06-12T05:26:52.651Z,93.80
2018-06-12T05:29:21.993Z,93.80
2018-06-12T05:31:51.364Z,93.90
2018-06-12T05:34:20.776Z,94.00
2018-06-12T05:36:50.136Z,94.00
2018-06-12T05:39:19.535Z,94.00
2018-06-12T05:41:48.964Z,94.00
2018-06-12T05:44:18.422Z,94.10
2018-06-12T05:46:47.883Z,94.10
2018-06-12T05:49:17.244Z,94.10
2018-06-12T05:51:46.612Z,94.20
2018-06-12T05:54:15.946Z,94.30
2018-06-12T05:56:45.336Z,94.30
2018-06-12T05:59:14.706Z,94.20
2018-06-12T06:01:44.035Z,94.10
2018-06-12T06:06:42.297Z,94.00
2018-06-12T06:09:11.636Z,94.00
2018-06-12T06:14:11.767Z,94.10
2018-06-12T06:16:41.158Z,94.00
2018-06-12T06:19:10.646Z,93.90
2018-06-12T06:21:40.038Z,94.00
2018-06-12T06:24:09.910Z,94.10
2018-06-12T06:26:39.356Z,94.20
2018-06-12T06:29:08.878Z,94.10
2018-06-12T06:31:38.270Z,94.20
2018-06-12T06:34:07.750Z,94.20
2018-06-12T06:36:37.128Z,94.20
2018-06-12T06:39:08.095Z,94.10
2018-06-12T06:41:37.467Z,93.90
2018-06-12T06:44:06.813Z,93.80
2018-06-12T06:46:36.217Z,93.90
2018-06-12T06:49:05.891Z,94.00
2018-06-12T06:51:35.260Z,93.90
2018-06-12T06:54:04.719Z,94.00
2018-06-12T06:56:34.043Z,94.20
2018-06-12T06:59:03.381Z,94.30
2018-06-12T07:01:32.823Z,94.00
2018-06-12T07:04:02.147Z,94.00
2018-06-12T07:06:31.523Z,94.00
2018-06-12T07:11:30.749Z,94.30
2018-06-12T07:14:00.137Z,94.30
2018-06-12T07:16:29.538Z,94.40
2018-06-12T07:18:58.923Z,94.40
2018-06-12T07:21:28.312Z,94.20
2018-06-12T07:23:57.698Z,94.10
2018-06-12T07:26:27.051Z,94.20
2018-06-12T07:28:56.430Z,94.20
2018-06-12T07:31:25.885Z,94.10
2018-06-12T07:33:55.206Z,94.20
2018-06-12T07:36:24.561Z,94.20
2018-06-12T07:38:53.903Z,94.20
2018-06-12T07:41:25.544Z,94.00
2018-06-12T07:43:54.946Z,93.90
2018-06-12T07:46:24.301Z,94.00
2018-06-12T07:48:53.697Z,94.20
2018-06-12T07:51:23.099Z,94.30
2018-06-12T07:53:52.472Z,94.60
2018-06-12T07:56:21.941Z,94.50
2018-06-12T07:58:51.320Z,94.80
2018-06-12T08:01:20.730Z,94.70
2018-06-12T08:03:50.206Z,94.50
2018-06-12T08:06:19.586Z,94.40
2018-06-12T08:08:48.971Z,93.90
2018-06-12T08:13:47.139Z,93.70
2018-06-12T08:16:16.652Z,93.60
2018-06-12T08:18:46.010Z,93.60
2018-06-12T08:21:15.381Z,93.50
2018-06-12T08:26:14.031Z,93.50
2018-06-12T08:28:43.494Z,93.20
2018-06-12T08:31:12.895Z,93.00
2018-06-12T08:33:42.309Z,92.50
2018-06-12T08:36:11.691Z,92.30
2018-06-12T08:38:41.128Z,92.50
2018-06-12T08:41:10.460Z,92.70
2018-06-12T08:43:39.960Z,92.50
2018-06-12T08:46:09.351Z,92.40
2018-06-12T08:48:38.710Z,92.40
2018-06-12T08:51:08.181Z,92.30
2018-06-12T08:53:37.576Z,92.10
2018-06-12T08:56:06.950Z,91.80
2018-06-12T08:58:37.424Z,91.80
2018-06-12T09:06:04.917Z,88.80
2018-06-12T09:08:34.316Z,88.70
2018-06-12T09:13:32.521Z,84.20
2018-06-12T09:18:31.997Z,84.60
2018-06-12T09:21:01.342Z,82.40
2018-06-12T09:23:30.774Z,79.90
2018-06-12T09:26:00.190Z,76.60
2018-06-12T09:28:29.567Z,76.50
2018-06-12T09:30:59.096Z,76.90
2018-06-12T09:33:28.511Z,75.60
2018-06-12T09:36:02.997Z,75.20
2018-06-12T09:38:32.368Z,73.20
2018-06-12T09:41:01.746Z,73.00
2018-06-12T09:43:31.112Z,72.20
2018-06-12T09:46:00.569Z,71.60
2018-06-12T09:48:29.948Z,70.00
2018-06-12T09:50:59.364Z,70.10
2018-06-12T09:53:28.748Z,69.30
2018-06-12T09:55:58.141Z,68.60
2018-06-12T09:58:27.529Z,69.80
2018-06-12T10:01:01.966Z,70.00
2018-06-12T10:03:31.524Z,69.80
2018-06-12T10:06:00.877Z,70.20
2018-06-12T10:08:30.293Z,71.80
2018-06-12T10:10:59.691Z,72.10
2018-06-12T10:13:30.239Z,72.70
2018-06-12T10:15:59.676Z,73.70
2018-06-12T10:18:29.416Z,74.30
2018-06-12T10:20:58.997Z,74.60
2018-06-12T10:23:28.394Z,74.00
2018-06-12T10:25:58.843Z,73.50
2018-06-12T10:28:28.337Z,72.80
2018-06-12T10:30:57.728Z,73.30
2018-06-12T10:33:27.151Z,73.00
2018-06-12T10:35:56.580Z,71.20
2018-06-12T10:38:26.083Z,70.00
2018-06-12T10:40:55.560Z,68.70
2018-06-12T10:43:25.095Z,67.90
2018-06-12T10:45:54.675Z,67.10
2018-06-12T10:48:24.067Z,66.00
2018-06-12T10:50:53.435Z,65.60
2018-06-12T11:00:49.591Z,62.30
2018-06-12T11:03:19.100Z,61.90
2018-06-12T11:05:48.642Z,59.40
2018-06-12T11:08:18.102Z,58.80
2018-06-12T11:10:47.539Z,57.80
2018-06-12T11:13:17.113Z,58.50
2018-06-12T11:15:46.546Z,59.40
2018-06-12T11:18:15.914Z,60.50
2018-06-12T11:20:45.343Z,60.90
2018-06-12T11:23:15.505Z,61.30
2018-06-12T11:25:44.873Z,61.70
2018-06-12T11:30:43.148Z,64.60
2018-06-12T11:33:12.633Z,65.50
2018-06-12T11:35:42.127Z,67.30
2018-06-12T11:38:11.608Z,67.60
2018-06-12T11:40:40.961Z,68.00
2018-06-12T11:43:10.482Z,68.50
2018-06-12T11:45:39.882Z,69.50
2018-06-12T11:50:38.518Z,70.40
2018-06-12T11:53:07.843Z,70.60
2018-06-12T11:55:37.317Z,71.30
2018-06-12T11:58:06.666Z,71.20
2018-06-12T12:00:36.329Z,70.60
2018-06-12T12:03:06.789Z,69.60
2018-06-12T12:05:36.347Z,70.20
2018-06-12T12:08:06.206Z,70.60
2018-06-12T12:10:35.608Z,70.80
2018-06-12T12:13:05.078Z,71.40
2018-06-12T12:15:34.504Z,71.30
2018-06-12T12:18:03.924Z,71.00
2018-06-12T12:20:33.363Z,70.80
2018-06-12T12:23:02.822Z,70.10
2018-06-12T12:25:32.252Z,71.00
2018-06-12T12:28:01.627Z,71.60
2018-06-12T12:30:31.109Z,71.50
2018-06-12T12:33:00.441Z,71.30
2018-06-12T12:35:29.871Z,70.20
2018-06-12T12:37:59.243Z,69.00
2018-06-12T12:40:28.631Z,69.00
2018-06-12T12:42:58.023Z,69.10
2018-06-12T12:45:27.459Z,69.10
2018-06-12T12:47:56.832Z,69.90
2018-06-12T12:50:26.190Z,70.40
2018-06-12T12:55:24.384Z,73.10
2018-06-12T12:57:53.845Z,74.40
2018-06-12T13:00:23.178Z,75.30
2018-06-12T13:05:21.381Z,75.60
2018-06-12T13:07:50.784Z,75.90
2018-06-12T13:10:20.182Z,76.50
2018-06-12T13:15:18.387Z,76.70
2018-06-12T13:17:47.802Z,76.50
2018-06-12T13:20:17.260Z,76.50
2018-06-12T13:22:46.660Z,75.70
2018-06-12T13:25:16.034Z,76.30
2018-06-12T13:27:45.364Z,76.20
2018-06-12T13:30:14.789Z,75.80
2018-06-12T13:32:44.685Z,75.60
2018-06-12T13:35:14.054Z,75.50
2018-06-12T13:37:43.485Z,74.90
2018-06-12T13:40:12.928Z,74.90
2018-06-12T13:42:42.317Z,74.70
2018-06-12T13:45:11.799Z,74.50
2018-06-12T13:47:41.143Z,73.70
2018-06-12T13:50:10.604Z,72.30
2018-06-12T13:52:39.935Z,71.10
2018-06-12T13:55:09.259Z,71.10
2018-06-12T13:57:38.598Z,69.90
2018-06-12T14:00:07.968Z,69.00
2018-06-12T14:02:37.361Z,69.30
2018-06-12T14:05:06.930Z,69.60
2018-06-12T14:10:05.261Z,69.40
2018-06-12T14:12:34.679Z,69.70
2018-06-12T14:15:04.142Z,70.20
2018-06-12T14:17:33.547Z,70.70
2018-06-12T14:20:02.944Z,71.20
2018-06-12T14:22:32.379Z,70.50
2018-06-12T14:25:01.852Z,70.80
2018-06-12T14:27:31.250Z,71.20
2018-06-12T14:32:29.722Z,71.20
2018-06-12T14:34:59.156Z,71.30
2018-06-12T14:37:28.626Z,70.80
2018-06-12T14:39:58.100Z,70.40
2018-06-12T14:42:27.435Z,71.00
2018-06-12T14:44:56.784Z,70.50
2018-06-12T14:47:26.285Z,70.90
2018-06-12T14:49:55.686Z,69.80
2018-06-12T14:52:25.126Z,68.80
2018-06-12T14:54:54.526Z,68.90
2018-06-12T14:57:23.954Z,68.50
2018-06-12T14:59:53.328Z,68.30
2018-06-12T15:02:22.739Z,68.60
2018-06-12T15:04:52.152Z,68.30
2018-06-12T15:07:21.501Z,69.30
2018-06-12T15:09:50.803Z,68.90
2018-06-12T15:12:20.260Z,69.30
2018-06-12T15:14:49.699Z,69.80
2018-06-12T15:17:19.029Z,70.10
2018-06-12T15:19:48.406Z,70.60
2018-06-12T15:22:17.848Z,71.60
2018-06-12T15:24:47.216Z,71.20
2018-06-12T15:27:16.608Z,71.50
2018-06-12T15:29:45.922Z,71.80
2018-06-12T15:32:15.257Z,72.20
2018-06-12T15:34:45.174Z,72.90
2018-06-12T15:37:14.511Z,72.80
2018-06-12T15:39:43.864Z,72.60
2018-06-12T15:42:13.252Z,72.30
2018-06-12T15:44:42.638Z,73.10
2018-06-12T15:47:11.985Z,72.90
2018-06-12T15:49:41.341Z,72.20
2018-06-12T15:52:10.808Z,72.10
2018-06-12T15:54:40.160Z,72.70
2018-06-12T15:57:09.506Z,73.20
2018-06-12T15:59:38.977Z,73.10
2018-06-12T16:02:08.564Z,72.70
2018-06-12T16:04:37.967Z,72.60
2018-06-12T16:07:07.408Z,70.60
2018-06-12T16:09:36.799Z,69.40
2018-06-12T16:12:06.198Z,69.20
2018-06-12T16:14:35.546Z,67.40
2018-06-12T16:19:33.759Z,67.10
2018-06-12T16:22:03.261Z,67.00
2018-06-12T16:24:33.136Z,67.40
2018-06-12T16:27:02.542Z,67.20
2018-06-12T16:29:31.837Z,67.80
2018-06-12T16:32:01.220Z,66.90
2018-06-12T16:34:30.561Z,66.90
2018-06-12T16:36:59.881Z,66.50
2018-06-12T16:39:29.217Z,66.40
2018-06-12T16:41:58.564Z,67.00
2018-06-12T16:44:27.894Z,67.40
2018-06-12T16:46:57.259Z,67.90
2018-06-12T16:51:55.335Z,68.80
2018-06-12T16:56:53.532Z,69.60
2018-06-12T17:01:51.766Z,68.60
2018-06-12T17:04:21.106Z,69.10
2018-06-12T17:06:50.482Z,69.40
2018-06-12T17:09:19.887Z,70.30
2018-06-12T17:11:49.241Z,70.80
2018-06-12T17:16:47.479Z,71.40
2018-06-12T17:19:16.924Z,71.50
2018-06-12T17:24:15.092Z,71.90
2018-06-12T17:26:44.883Z,71.90
2018-06-12T17:29:14.218Z,71.00
2018-06-12T17:31:43.558Z,70.10
2018-06-12T17:34:12.900Z,66.30
2018-06-12T17:36:42.283Z,64.90
2018-06-12T17:39:11.625Z,65.20
2018-06-12T17:41:40.949Z,65.30
2018-06-12T17:44:11.331Z,64.70
2018-06-12T17:46:40.698Z,64.10
2018-06-12T17:49:10.026Z,64.30
2018-06-12T17:51:39.412Z,64.10
2018-06-12T17:54:08.850Z,63.70
2018-06-12T17:56:38.216Z,64.20
2018-06-12T17:59:07.617Z,64.40
2018-06-12T18:01:36.989Z,64.50
2018-06-12T18:04:06.512Z,64.40
2018-06-12T18:06:35.908Z,65.90
2018-06-12T18:09:06.334Z,66.70
2018-06-12T18:11:35.721Z,67.40
2018-06-12T18:14:05.117Z,68.60
2018-06-12T18:16:34.456Z,69.60
2018-06-12T18:19:03.882Z,70.20
2018-06-12T18:21:33.239Z,71.10
2018-06-12T18:24:02.614Z,72.60
2018-06-12T18:29:00.771Z,74.70
2018-06-12T18:31:30.085Z,74.80
2018-06-12T18:33:59.455Z,75.40
2018-06-12T18:36:28.818Z,75.60
2018-06-12T18:41:27.018Z,76.00
2018-06-12T18:43:56.366Z,76.50
2018-06-12T18:46:26.299Z,76.70
2018-06-12T18:48:55.644Z,77.00
2018-06-12T18:51:24.988Z,77.70
2018-06-12T18:53:54.459Z,77.50
2018-06-12T18:56:23.829Z,77.80
2018-06-12T19:01:21.967Z,78.30
2018-06-12T19:03:51.300Z,78.60
2018-06-12T19:06:20.632Z,78.80
2018-06-12T19:08:50.028Z,78.80
2018-06-12T19:11:19.518Z,78.80
2018-06-12T19:13:48.855Z,78.90
2018-06-12T19:16:18.284Z,78.90
2018-06-12T19:18:47.630Z,79.20
2018-06-12T19:23:45.846Z,79.40
2018-06-12T19:26:15.256Z,78.90
2018-06-12T19:28:44.589Z,78.90
2018-06-12T19:31:14.002Z,79.10
2018-06-12T19:33:43.313Z,79.30
2018-06-12T19:36:12.700Z,79.20
2018-06-12T19:38:42.039Z,79.40
2018-06-12T19:41:11.354Z,79.50
2018-06-12T19:43:40.695Z,79.70
2018-06-12T19:46:10.132Z,79.80
2018-06-12T19:51:08.838Z,80.10
2018-06-12T19:53:38.471Z,80.90
2018-06-12T19:56:09.008Z,80.30
2018-06-12T19:58:38.612Z,80.40
2018-06-12T20:01:07.985Z,80.70
2018-06-12T20:03:37.341Z,80.70
2018-06-12T20:06:06.760Z,80.70
2018-06-12T20:08:36.168Z,80.90
2018-06-12T20:11:05.629Z,81.10
2018-06-12T20:13:35.075Z,81.40
2018-06-12T20:16:04.497Z,81.50
2018-06-12T20:21:03.076Z,81.90
2018-06-12T20:23:32.618Z,82.00
2018-06-12T20:26:02.110Z,82.00
2018-06-12T20:31:00.344Z,82.30
2018-06-12T20:33:29.881Z,82.40
2018-06-12T20:35:59.473Z,82.60
2018-06-12T20:38:28.878Z,82.60
2018-06-12T20:40:58.825Z,82.60
2018-06-12T20:45:57.388Z,82.90
2018-06-12T20:51:09.486Z,83.00
2018-06-12T20:53:43.858Z,83.10
2018-06-12T20:56:13.222Z,83.30
2018-06-12T20:58:42.654Z,83.20
2018-06-12T21:01:12.084Z,83.10
2018-06-12T21:03:41.429Z,84.10
2018-06-12T21:06:10.796Z,83.50
2018-06-12T21:08:45.660Z,83.60
2018-06-12T21:11:15.314Z,83.60
2018-06-12T21:13:44.976Z,83.80
2018-06-12T21:16:15.705Z,83.90
2018-06-12T21:18:45.288Z,83.90
2018-06-12T21:21:14.729Z,83.90
2018-06-12T21:23:44.307Z,83.90
2018-06-12T21:26:13.689Z,84.30
2018-06-12T21:28:43.239Z,84.50
2018-06-12T21:31:12.653Z,84.70
2018-06-12T21:33:42.025Z,84.80
2018-06-12T21:36:11.467Z,84.70
2018-06-12T21:38:40.922Z,84.80
2018-06-12T21:41:10.336Z,85.30
2018-06-12T21:43:39.815Z,84.90
2018-06-12T21:46:09.207Z,84.90
2018-06-12T21:48:38.687Z,84.90
2018-06-12T21:53:37.061Z,85.00
2018-06-12T21:56:06.665Z,85.20
2018-06-12T21:58:36.287Z,85.40
2018-06-12T22:01:06.022Z,85.70
2018-06-12T22:03:35.797Z,85.80
2018-06-12T22:06:05.402Z,86.00
2018-06-12T22:08:34.777Z,86.10
2018-06-12T22:11:04.144Z,86.40
2018-06-12T22:13:34.792Z,86.60
2018-06-12T22:16:04.200Z,86.80
2018-06-12T22:18:33.581Z,87.10
2018-06-12T22:21:02.955Z,87.30
2018-06-12T22:23:32.370Z,87.40
2018-06-12T22:26:01.746Z,87.30
2018-06-12T22:28:31.192Z,88.50
2018-06-12T22:31:00.590Z,88.00
2018-06-12T22:33:29.980Z,88.20
2018-06-12T22:35:59.342Z,88.50
2018-06-12T22:38:28.696Z,90.00
2018-06-12T22:43:26.937Z,90.20
2018-06-12T22:45:56.354Z,90.40
2018-06-12T22:48:25.741Z,90.50
2018-06-12T22:50:55.096Z,90.60
2018-06-12T22:53:24.595Z,90.70
2018-06-12T23:00:51.679Z,91.00
2018-06-12T23:03:21.038Z,91.10
2018-06-12T23:05:50.431Z,91.40
2018-06-12T23:08:19.804Z,91.70
2018-06-12T23:10:49.132Z,92.10
2018-06-12T23:13:18.466Z,92.40
2018-06-12T23:15:47.941Z,92.80
2018-06-12T23:18:17.384Z,93.10
2018-06-12T23:21:01.339Z,93.20
2018-06-12T23:23:30.698Z,93.30
2018-06-12T23:26:00.092Z,93.30
2018-06-12T23:28:29.450Z,93.30
2018-06-12T23:30:58.779Z,93.50
2018-06-12T23:33:28.117Z,93.40
2018-06-12T23:35:57.524Z,93.30
2018-06-12T23:38:26.854Z,93.30
2018-06-12T23:40:56.218Z,93.30
2018-06-12T23:43:25.616Z,93.40
2018-06-12T23:45:55.380Z,93.30
2018-06-12T23:48:24.816Z,93.30
2018-06-12T23:50:54.164Z,93.10
2018-06-12T23:53:23.500Z,93.00
2018-06-12T23:55:52.826Z,93.10
2018-06-12T23:58:22.200Z,93.10
